Tiempo atmosférico en la estación meteorológica de Olmedo, Depósito de Agua, Valladolid (786 m.)



Fecha
DESCASC
Temp. máxima en grados centígrados (hora)
DESCASC
Temp. mínima en grados centígrados (hora)
DESCASC
Temp. media en grados centígrados
DESCASC
Racha de viento máxima en m/sg (hora)
DESCASC
Velocidad máxima media en intervalos de 10 minutos(hora)
DESCASC
Precipitaciones diarias en mm
DESCASC
Precipitaciones de 00:00 a 06:00 en mm
DESCASC
Precipitaciones de 06:00 a 12:00 en mm
DESCASC
Precipitaciones de 12:00 a 18:00 en mm
DESCASC
Precipitaciones de 18:00 a 24:00 en mm
DESCASC
02-08-2020 29.4 (16:30) 14.7 (07:20) 22 8.89 (19:30) 6.11 (20:00) 0 0 0 0 0
01-08-2020 33.3 (17:30) 16.1 (07:30) 24.7 8.33 (17:10) 4.44 (05:00) 0 0 0 0 0
31-07-2020 36.4 (17:40) 18.1 (07:10) 27.3 10 (14:50) 5.56 (14:10) 0 0 0 0 0
30-07-2020 37.2 (18:20) 21.2 (00:00) 29.2 15.83 (15:50) 10 (14:50) 0 0 0 0 0
29-07-2020 36.7 (18:30) 16.6 (00:00) 26.7 7.5 (00:10) 5.56 (00:10) 0 0 0 0 0
28-07-2020 34.7 (19:00) 17.1 (07:30) 25.9 9.17 (23:30) 6.11 (23:40) 0 0 0 0 0
27-07-2020 38.9 (16:40) 17.3 (00:00) 28.1 8.61 (20:30) 5.83 (20:30) 0 0 0 0 0
26-07-2020 34.8 (18:20) 14.9 (00:00) 24.8 8.33 (16:40) 3.61 (16:50) 0 0 0 0 0
25-07-2020 34.5 (17:40) 15.6 (07:20) 25.1 9.72 (16:20) 5.28 (16:20) 0 0 0 0 0
24-07-2020 32.7 (19:00) 16.4 (00:00) 24.6 7.78 (16:30) 4.44 (23:30) 0 0 0 0 0
23-07-2020 34 (17:30) 17.5 (00:00) 25.8 9.72 (17:30) 4.17 (17:30) 0 0 0 0 0
22-07-2020 32.7 (18:30) 17.3 (07:50) 25 7.78 (04:20) 5.56 (04:40) 5 5 0 0 0
21-07-2020 32.6 (15:30) 16 (00:00) 24.3 16.11 (16:00) 10 (16:00) 0.8 0 0 0.8 0
20-07-2020 35.5 (17:40) 17.3 (07:00) 26.4 9.44 (16:40) 6.11 (01:10) 0 0 0 0 0
19-07-2020 35.6 (16:40) 14 (00:00) 24.8 11.11 (15:10) 6.11 (14:50) 0 0 0 0 0
18-07-2020 33.3 (19:30) 10.7 (00:00) 22 5.83 (00:10) 3.33 (00:10) 0 0 0 0 0
17-07-2020 31.5 (17:10) 12.9 (00:00) 22.2 10.56 (16:20) 6.11 (19:40) 0 0 0 0 0
16-07-2020 32.8 (17:40) 13.7 (00:00) 23.2 9.72 (20:30) 6.11 (20:40) 0 0 0 0 0
15-07-2020 29.8 (17:40) 12.9 (07:30) 21.3 10 (10:10) 6.39 (10:20) 0 0 0 0 0
14-07-2020 30.5 (16:20) 11.5 (00:00) 21 11.11 (21:30) 7.5 (21:30) 0 0 0 0 0
13-07-2020 31.3 (17:30) 13.8 (07:00) 22.5 10.56 (21:00) 6.67 (21:10) 0 0 0 0 0
12-07-2020 31 (16:10) 16.9 (06:40) 23.9 12.5 (00:50) 7.78 (18:10) 0.2 0.2 0 0 0
11-07-2020 34.6 (17:00) 13.6 (06:40) 24.1 8.89 (19:20) 6.11 (19:30) 0 0 0 0 0
10-07-2020 32.3 (19:20) 13.7 (00:00) 23 11.11 (21:00) 6.67 (20:50) 0 0 0 0 0
09-07-2020 34.2 (17:40) 15.4 (06:30) 24.8 14.72 (19:10) 10.28 (19:10) 0.4 0.4 0 0 0
08-07-2020 36.3 (14:10) 18.3 (06:20) 27.3 16.67 (20:50) 11.39 (20:50) 0 0 0 0 0

Gráficas

Temp. máximas Temp. mínimas Temp. medias Precipitaciones Rachas de viento máximas Velocidades máximas media en intervalos de 10 minutos

Datos horarios

Fecha y hora oficial Temperatura (ºC) Velocidad del viento (km/h) Dirección del viento Racha (km/h) Dirección de racha Precipitación (mm) Presión (hPa) Tendencia (hPa) Humedad (%)
2020-08-06 23:00:00 28.5 11 Sudoeste 18 Sur 0 -- -- 32
2020-08-06 22:00:00 30.6 9 Sudoeste 18 Sudoeste 0 -- -- 27
2020-08-06 21:00:00 34.5 11 Sur 30 Sur 0 -- -- 23
2020-08-06 20:00:00 36.4 14 Sur 29 Sur 0 -- -- 21
2020-08-06 19:00:00 37 15 Sur 31 Sudoeste 0 -- -- 22
2020-08-06 18:00:00 36.9 17 Sudeste 35 Sur 0 -- -- 23
2020-08-06 17:00:00 36.9 24 Sur 37 Sur 0 -- -- 23
2020-08-06 16:00:00 36.7 15 Sur 45 Sudoeste 0 -- -- 21
2020-08-06 15:00:00 36.1 19 Sur 33 Sur 0 -- -- 22
2020-08-06 14:00:00 36 15 Sudeste 30 Sur 0 -- -- 24
2020-08-06 13:00:00 34.9 14 Sudeste 24 Sur 0 -- -- 26
2020-08-06 12:00:00 32.1 5 Este 15 Sudeste 0 -- -- 29
2020-08-06 11:00:00 27.8 8 Este 14 Este 0 -- -- 32
2020-08-06 10:00:00 23.1 10 Este 18 Este 0 -- -- 39
2020-08-06 09:00:00 19.1 14 Este 18 Este 0 -- -- 46
2020-08-06 08:00:00 16.7 8 Este 15 Este 0 -- -- 50
2020-08-06 07:00:00 16.5 14 Este 17 Este 0 -- -- 50
2020-08-06 06:00:00 17.5 14 Este 17 Este 0 -- -- 48
2020-08-06 05:00:00 20 9 Nordeste 11 Nordeste 0 -- -- 43
2020-08-06 04:00:00 19.8 9 Sudeste 11 Sudeste 0 -- -- 43
2020-08-06 03:00:00 21.4 6 Nordeste 15 Norte 0 -- -- 40
2020-08-06 02:00:00 22.7 9 Este 15 Este 0 -- -- 37
2020-08-06 01:00:00 24.3 13 Este 15 Este 0 -- -- 34
2020-08-06 00:00:00 26.1 9 Este 12 Este 0 -- -- 31
2020-08-05 23:00:00 27.7 8 Nordeste 12 Nordeste 0 -- -- 28
2020-08-05 22:00:00 29.2 6 Norte 11 Norte 0 -- -- 28
2020-08-05 21:00:00 32.2 8 Norte 16 Noroeste 0 -- -- 24
2020-08-05 20:00:00 33.5 8 Noroeste 17 Noroeste 0 -- -- 22
2020-08-05 19:00:00 34.4 8 Nordeste 18 Noroeste 0 -- -- 20
2020-08-05 18:00:00 34 8 Noroeste 18 Norte 0 -- -- 21
2020-08-05 17:00:00 34.1 7 Norte 21 Nordeste 0 -- -- 20
2020-08-05 16:00:00 33 5 Sudeste 13 Oeste 0 -- -- 21
2020-08-05 15:00:00 32.2 4 Sudoeste 14 Este 0 -- -- 22
2020-08-05 14:00:00 31.1 5 Noroeste 16 Norte 0 -- -- 25
2020-08-05 13:00:00 29.5 5 Nordeste 17 Norte 0 -- -- 28
2020-08-05 12:00:00 27.9 6 Nordeste 13 Nordeste 0 -- -- 30
2020-08-05 11:00:00 24 4 Nordeste 11 Este 0 -- -- 39
2020-08-05 10:00:00 19.6 3 Nordeste 11 Este 0 -- -- 53
2020-08-05 09:00:00 16.3 8 Este 10 Este 0 -- -- 64
2020-08-05 08:00:00 14.2 3 Este 5 Nordeste 0 -- -- 68
2020-08-05 07:00:00 14.2 3 Nordeste 11 Sudeste 0 -- -- 69
2020-08-05 06:00:00 14.4 12 Sudeste 14 Sudeste 0 -- -- 65
2020-08-05 05:00:00 15.7 13 Este 14 Este 0 -- -- 62
2020-08-05 04:00:00 16.9 7 Nordeste 17 Este 0 -- -- 59
2020-08-05 03:00:00 17.2 14 Este 18 Este 0 -- -- 54
2020-08-05 02:00:00 18.2 14 Este 19 Este 0 -- -- 51
2020-08-05 01:00:00 19.4 13 Este 18 Este 0 -- -- 48
2020-08-05 00:00:00 21.5 8 Este 14 Nordeste 0 -- -- 39
2020-08-04 23:00:00 23.6 9 Nordeste 18 Norte 0 -- -- 34
2020-08-04 22:00:00 25.1 6 Norte 17 Norte 0 -- -- 33
2020-08-04 21:00:00 27.8 12 Norte 18 Norte 0 -- -- 27
2020-08-04 20:00:00 29 11 Noroeste 22 Noroeste 0 -- -- 28
2020-08-04 19:00:00 29.6 12 Norte 24 Noroeste 0 -- -- 29
2020-08-04 18:00:00 30.2 9 Nordeste 22 Norte 0 -- -- 28
2020-08-04 17:00:00 30 9 Nordeste 26 Norte 0 -- -- 29
2020-08-04 16:00:00 29.6 9 Norte 19 Noroeste 0 -- -- 29
2020-08-04 15:00:00 28.5 9 Oeste 18 Norte 0 -- -- 32
2020-08-04 14:00:00 27.6 9 Nordeste 23 Norte 0 -- -- 35
2020-08-04 13:00:00 26.2 6 Este 22 Nordeste 0 -- -- 37
2020-08-04 12:00:00 24.7 13 Este 22 Nordeste 0 -- -- 41
2020-08-04 11:00:00 22.7 13 Nordeste 19 Nordeste 0 -- -- 45
2020-08-04 10:00:00 20.2 7 Nordeste 14 Este 0 -- -- 52
2020-08-04 09:00:00 17 6 Norte 10 Nordeste 0 -- -- 61
2020-08-04 08:00:00 15.5 7 Nordeste 15 Nordeste 0 -- -- 66
2020-08-04 07:00:00 15 6 Este 17 Nordeste 0 -- -- 68
2020-08-04 06:00:00 16.3 12 Nordeste 21 Nordeste 0 -- -- 63
2020-08-04 05:00:00 16.9 12 Nordeste 21 Norte 0 -- -- 62
2020-08-04 04:00:00 17.5 12 Nordeste 25 Nordeste 0 -- -- 60
2020-08-04 03:00:00 18.3 14 Nordeste 23 Este 0 -- -- 57
2020-08-04 02:00:00 18.8 11 Nordeste 23 Nordeste 0 -- -- 56
2020-08-04 01:00:00 19.7 11 Este 25 Este 0 -- -- 53
2020-08-04 00:00:00 20.5 16 Este 23 Este 0 -- -- 46
2020-08-03 23:00:00 23.4 9 Nordeste 14 Este 0 -- -- 37
2020-08-03 22:00:00 24.8 6 Norte 20 Norte 0 -- -- 35
2020-08-03 21:00:00 26.6 10 Norte 22 Norte 0 -- -- 32
2020-08-03 20:00:00 27.9 13 Norte 24 Noroeste 0 -- -- 30
2020-08-03 19:00:00 28.9 10 Noroeste 21 Noroeste 0 -- -- 28
2020-08-03 18:00:00 28.5 10 Norte 30 Noroeste 0 -- -- 29
2020-08-03 17:00:00 28.6 15 Noroeste 26 Norte 0 -- -- 29
2020-08-03 16:00:00 27.8 10 Noroeste 29 Norte 0 -- -- 29
2020-08-03 15:00:00 27.1 13 Norte 22 Norte 0 -- -- 30
2020-08-03 14:00:00 25.4 12 Norte 25 Norte 0 -- -- 29
2020-08-03 13:00:00 24.2 13 Norte 23 Nordeste 0 -- -- 30
2020-08-03 12:00:00 22.6 12 Norte 21 Nordeste 0 -- -- 35
2020-08-03 11:00:00 20 12 Norte 17 Norte 0 -- -- 50
2020-08-03 10:00:00 18.2 8 Norte 15 Nordeste 0 -- -- 57
2020-08-03 09:00:00 16.2 9 Norte 14 Norte 0 -- -- 65
2020-08-03 08:00:00 14 5 Norte 10 Norte 0 -- -- 74
2020-08-03 07:00:00 14.1 4 Norte 7 Norte 0 -- -- 72
2020-08-03 06:00:00 15.3 4 Norte 15 Norte 0 -- -- 67
2020-08-03 05:00:00 16.2 11 Nordeste 21 Nordeste 0 -- -- 64
2020-08-03 04:00:00 16.8 15 Nordeste 24 Nordeste 0 -- -- 62
2020-08-03 03:00:00 17.3 6 Nordeste 20 Nordeste 0 -- -- 61
2020-08-03 02:00:00 17.6 14 Nordeste 29 Nordeste 0 -- -- 61
2020-08-03 01:00:00 18.2 19 Nordeste 31 Este 0 -- -- 61
2020-08-03 00:00:00 19.6 16 Este 26 Nordeste 0 -- -- 58
2020-08-02 23:00:00 21.3 13 Nordeste 23 Nordeste 0 -- -- 51
2020-08-02 22:00:00 22.8 13 Nordeste 27 Norte 0 -- -- 45
2020-08-02 21:00:00 24.7 18 Norte 30 Norte 0 -- -- 38
2020-08-02 20:00:00 26.3 22 Norte 32 Norte 0 -- -- 39
2020-08-02 19:00:00 27.4 14 Norte 30 Norte 0 -- -- 36
2020-08-02 18:00:00 27.7 17 Norte 30 Norte 0 -- -- 36
2020-08-02 17:00:00 28.7 15 Norte 28 Norte 0 -- -- 34
2020-08-02 16:00:00 28.8 16 Norte 28 Norte 0 -- -- 37
2020-08-02 15:00:00 28.3 10 Norte 23 Norte 0 -- -- 38
2020-08-02 14:00:00 27.3 7 Nordeste 23 Norte 0 -- -- 44
2020-08-02 13:00:00 25.6 12 Norte 24 Norte 0 -- -- 49
2020-08-02 12:00:00 23.9 13 Norte 22 Norte 0 -- -- 54
2020-08-02 11:00:00 21.4 5 Norte 14 Norte 0 -- -- 63
2020-08-02 10:00:00 19.4 6 Norte 13 Nordeste 0 -- -- 70
2020-08-02 09:00:00 17.7 3 Nordeste 11 Norte 0 -- -- 76
2020-08-02 08:00:00 15.2 5 Norte 12 Noroeste 0 -- -- 84
2020-08-02 07:00:00 14.9 5 Norte 9 Norte 0 -- -- 86
2020-08-02 06:00:00 15.3 5 Norte 11 Norte 0 -- -- 84
2020-08-02 05:00:00 15.8 6 Norte 12 Norte 0 -- -- 81
2020-08-02 04:00:00 17.5 6 Norte 10 Norte 0 -- -- 73
2020-08-02 03:00:00 18.7 5 Nordeste 15 Nordeste 0 -- -- 70
2020-08-02 02:00:00 19.4 8 Norte 18 Norte 0 -- -- 67
2020-08-02 01:00:00 21.6 12 Nordeste 22 Norte 0 -- -- 60
2020-08-02 00:00:00 23.1 9 Norte 20 Noroeste 0 -- -- 49
2020-08-01 23:00:00 26 8 Oeste 17 Noroeste 0 -- -- 35
2020-08-01 22:00:00 27.8 11 Noroeste 20 Oeste 0 -- -- 28
2020-08-01 21:00:00 31 11 Oeste 24 Oeste 0 -- -- 27
2020-08-01 20:00:00 32.5 13 Oeste 27 Oeste 0 -- -- 25
2020-08-01 19:00:00 33 8 Noroeste 25 Oeste 0 -- -- 26
2020-08-01 18:00:00 33.1 11 Noroeste 30 Oeste 0 -- -- 26
2020-08-01 17:00:00 33.2 11 Oeste 27 Oeste 0 -- -- 24
2020-08-01 16:00:00 32.5 12 Noroeste 28 Oeste 0 -- -- 22
2020-08-01 15:00:00 31.3 15 Sudoeste 25 Oeste 0 -- -- 25
2020-08-01 14:00:00 30 12 Noroeste 25 Noroeste 0 -- -- 31
2020-08-01 13:00:00 28.9 9 Noroeste 22 Sudoeste 0 -- -- 37
2020-08-01 12:00:00 25.9 12 Oeste 20 Sudoeste 0 -- -- 42
2020-08-01 11:00:00 23.4 10 Oeste 22 Sudoeste 0 -- -- 47
2020-08-01 10:00:00 21.4 13 Sudoeste 18 Sudoeste 0 -- -- 51
2020-08-01 09:00:00 19.1 9 Sudoeste 14 Oeste 0 -- -- 53
2020-08-01 08:00:00 16.7 9 Sudoeste 15 Sudoeste 0 -- -- 56
2020-08-01 07:00:00 16.9 11 Sudoeste 15 Oeste 0 -- -- 51
2020-08-01 06:00:00 17.4 11 Sudoeste 18 Oeste 0 -- -- 46
2020-08-01 05:00:00 18.6 16 Sudoeste 19 Sudoeste 0 -- -- 41
2020-08-01 04:00:00 18.4 14 Sudoeste 18 Sudoeste 0 -- -- 41
2020-08-01 03:00:00 20.5 10 Sudoeste 13 Sudoeste 0 -- -- 40
2020-08-01 02:00:00 22.4 11 Sudoeste 13 Sudoeste 0 -- -- 36
2020-08-01 01:00:00 23.8 10 Sudoeste 16 Sudoeste 0 -- -- 34
2020-08-01 00:00:00 25 10 Sudoeste 13 Sudoeste 0 -- -- 32
2020-07-31 23:00:00 27.2 10 Sudoeste 15 Sudoeste 0 -- -- 28
2020-07-31 22:00:00 30.4 5 Oeste 13 Oeste 0 -- -- 25
2020-07-31 21:00:00 33.9 8 Oeste 24 Oeste 0 -- -- 22
2020-07-31 20:00:00 35.5 10 Oeste 29 Sudoeste 0 -- -- 19
2020-07-31 19:00:00 36 12 Oeste 35 Sudoeste 0 -- -- 19
2020-07-31 18:00:00 36.4 14 Oeste 36 Sudoeste 0 -- -- 17
2020-07-31 17:00:00 36.2 14 Oeste 33 Sudoeste 0 -- -- 16
2020-07-31 16:00:00 35.6 12 Oeste 33 Oeste 0 -- -- 17
2020-07-31 15:00:00 34.4 14 Sudoeste 36 Oeste 0 -- -- 19
2020-07-31 14:00:00 33.8 13 Sudoeste 26 Oeste 0 -- -- 21
2020-07-31 13:00:00 32.5 10 Oeste 23 Sudoeste 0 -- -- 27
2020-07-31 12:00:00 30.2 6 Noroeste 17 Oeste 0 -- -- 35
2020-07-31 11:00:00 27.4 3 Sudoeste 10 Sur 0 -- -- 42
2020-07-31 10:00:00 24.9 4 Sur 11 Este 0 -- -- 49
2020-07-31 09:00:00 21.6 6 Sudeste 10 Sudeste 0 -- -- 58
2020-07-31 08:00:00 19.1 7 Sudeste 9 Sudeste 0 -- -- 63
2020-07-31 07:00:00 18.3 6 Sur 14 Sudoeste 0 -- -- 64
2020-07-31 06:00:00 18.5 11 Sudoeste 19 Sudoeste 0 -- -- 66
2020-07-31 05:00:00 19.2 14 Sudoeste 22 Sudoeste 0 -- -- 63
2020-07-31 04:00:00 19.3 17 Sudoeste 22 Sudoeste 0 -- -- 64
2020-07-31 03:00:00 20 12 Sur 15 Sur 0 -- -- 61
2020-07-31 02:00:00 22 3 Sudoeste 11 Norte 0 -- -- 59
2020-07-31 01:00:00 24.1 5 Nordeste 14 Nordeste 0 -- -- 54
2020-07-31 00:00:00 25.6 9 Nordeste 26 Nordeste 0 -- -- 51
2020-07-30 23:00:00 29 5 Norte 21 Oeste 0 -- -- 36
2020-07-30 22:00:00 29.9 14 Sudoeste 24 Sudoeste 0 -- -- 30
2020-07-30 21:00:00 32.3 13 Oeste 32 Oeste 0 -- -- 27
2020-07-30 20:00:00 35.1 17 Oeste 46 Sudoeste 0 -- -- 25
2020-07-30 19:00:00 36.5 28 Sudoeste 45 Sudoeste 0 -- -- 21
2020-07-30 18:00:00 36.8 23 Sur 51 Sur 0 -- -- 20
2020-07-30 17:00:00 36.1 26 Sur 51 Sur 0 -- -- 24
2020-07-30 16:00:00 36.4 28 Sur 57 Sur 0 -- -- 25
2020-07-30 15:00:00 36.4 35 Sur 51 Sur 0 -- -- 24
2020-07-30 14:00:00 36.2 33 Sur 48 Sur 0 -- -- 27
2020-07-30 13:00:00 35.5 30 Sur 40 Sur 0 -- -- 27
2020-07-30 12:00:00 33.9 17 Sur 28 Sur 0 -- -- 30
2020-07-30 11:00:00 30.6 20 Sur 27 Sur 0 -- -- 37
2020-07-30 10:00:00 26 8 Sudeste 15 Este 0 -- -- 47
2020-07-30 09:00:00 23.3 7 Este 12 Este 0 -- -- 51
2020-07-30 08:00:00 21.6 6 Este 14 Sudeste 0 -- -- 52
2020-07-30 07:00:00 21.7 8 Sudeste 10 Sudeste 0 -- -- 49
2020-07-30 06:00:00 22.9 7 Este 9 Este 0 -- -- 48
2020-07-30 05:00:00 23.9 8 Este 16 Sudeste 0 -- -- 43
2020-07-30 04:00:00 25.1 14 Sudeste 20 Sudeste 0 -- -- 47
2020-07-30 03:00:00 26.4 17 Sur 31 Sur 0 -- -- 37
2020-07-30 02:00:00 26.4 18 Sudeste 30 Sudeste 0 -- -- 38
2020-07-30 01:00:00 27.3 18 Sur 23 Sur 0 -- -- 32
2020-07-30 00:00:00 29.1 8 Este 12 Este 0 -- -- 30
2020-07-29 23:00:00 30.9 4 Noroeste 23 Norte 0 -- -- 28
2020-07-29 22:00:00 32.7 10 Noroeste 26 Noroeste 0 -- -- 25
2020-07-29 21:00:00 34.7 6 Sur 20 Sur 0 -- -- 25
2020-07-29 20:00:00 36.3 11 Sur 19 Sur 0 -- -- 23
2020-07-29 19:00:00 35.6 8 Sudeste 25 Este 0 -- -- 24
2020-07-29 18:00:00 36.2 12 Sudeste 25 Sudeste 0 -- -- 24
2020-07-29 17:00:00 36.4 5 Sur 21 Oeste 0 -- -- 23
2020-07-29 16:00:00 35.9 10 Sudoeste 20 Sudoeste 0 -- -- 23
2020-07-29 15:00:00 35.6 8 Nordeste 21 Nordeste 0 -- -- 22
2020-07-29 14:00:00 33.7 9 Sudeste 18 Sudeste 0 -- -- 31
2020-07-29 13:00:00 31.1 4 Sudoeste 14 Nordeste 0 -- -- 41
2020-07-29 12:00:00 28.1 6 Nordeste 13 Nordeste 0 -- -- 49
2020-07-29 11:00:00 24.3 8 Norte 12 Nordeste 0 -- -- 60
2020-07-29 10:00:00 21.3 5 Nordeste 14 Este 0 -- -- 69
2020-07-29 09:00:00 19.1 7 Este 11 Este 0 -- -- 77
2020-07-29 08:00:00 17.4 5 Este 11 Nordeste 0 -- -- 83
2020-07-29 07:00:00 16.9 4 Nordeste 15 Nordeste 0 -- -- 86
2020-07-29 06:00:00 16.6 8 Norte 13 Norte 0 -- -- 86
2020-07-29 05:00:00 17.1 8 Norte 13 Norte 0 -- -- 84
2020-07-29 04:00:00 18 6 Noroeste 12 Noroeste 0 -- -- 80
2020-07-29 03:00:00 19.6 3 Norte 13 Nordeste 0 -- -- 72
2020-07-29 02:00:00 20.3 8 Nordeste 16 Nordeste 0 -- -- 70
2020-07-29 01:00:00 21.5 10 Nordeste 27 Nordeste 0 -- -- 65
2020-07-29 00:00:00 22.7 19 Nordeste 33 Nordeste 0 -- -- 62
2020-07-28 23:00:00 24.9 18 Nordeste 29 Nordeste 0 -- -- 54
2020-07-28 22:00:00 27.5 21 Norte 30 Nordeste 0 -- -- 46
2020-07-28 21:00:00 31.2 19 Nordeste 30 Norte 0 -- -- 36
2020-07-28 20:00:00 34.4 9 Noroeste 19 Oeste 0 -- -- 28
2020-07-28 19:00:00 34.7 10 Noroeste 27 Noroeste 0 -- -- 29
2020-07-28 18:00:00 34.5 10 Noroeste 25 Noroeste 0 -- -- 29
2020-07-28 17:00:00 34.2 9 Noroeste 17 Noroeste 0 -- -- 28
2020-07-28 16:00:00 33 6 Noroeste 15 Oeste 0 -- -- 28
2020-07-28 15:00:00 31.4 7 Sudoeste 17 Sudoeste 0 -- -- 34
2020-07-28 14:00:00 29.5 6 Noroeste 18 Noroeste 0 -- -- 40
2020-07-28 13:00:00 28 8 Noroeste 14 Noroeste 0 -- -- 43
2020-07-28 12:00:00 26.1 7 Noroeste 16 Noroeste 0 -- -- 46
2020-07-28 11:00:00 23.2 6 Noroeste 11 Oeste 0 -- -- 53
2020-07-28 10:00:00 21.7 2 Norte 9 Noroeste 0 -- -- 57
2020-07-28 09:00:00 19.5 3 Noroeste 7 Noroeste 0 -- -- 64
2020-07-28 08:00:00 17.7 4 Noroeste 10 Noroeste 0 -- -- 69
2020-07-28 07:00:00 17.4 3 Noroeste 9 Oeste 0 -- -- 71
2020-07-28 06:00:00 18.4 3 Oeste 10 Noroeste 0 -- -- 69
2020-07-28 05:00:00 19.4 5 Oeste 13 Noroeste 0 -- -- 68
2020-07-28 04:00:00 21 6 Noroeste 13 Noroeste 0 -- -- 65
2020-07-28 03:00:00 22.7 6 Noroeste 19 Norte 0 -- -- 63
2020-07-28 02:00:00 24.7 13 Noroeste 21 Noroeste 0 -- -- 55
2020-07-28 01:00:00 26.6 10 Oeste 22 Sudoeste 0 -- -- 35
2020-07-28 00:00:00 27.3 12 Oeste 18 Oeste 0 -- -- 31
2020-07-27 23:00:00 29.4 10 Sudoeste 17 Sudoeste 0 -- -- 27
2020-07-27 22:00:00 32.3 11 Oeste 25 Sudoeste 0 -- -- 24
2020-07-27 21:00:00 35.5 15 Sudoeste 31 Oeste 0 -- -- 22
2020-07-27 20:00:00 37.5 15 Sudoeste 30 Sudoeste 0 -- -- 20
2020-07-27 19:00:00 38.3 13 Oeste 28 Oeste 0 -- -- 20
2020-07-27 18:00:00 38.9 11 Sudoeste 28 Sudoeste 0 -- -- 19
2020-07-27 17:00:00 38.7 11 Oeste 24 Sudoeste 0 -- -- 20
2020-07-27 16:00:00 38.4 11 Oeste 23 Noroeste 0 -- -- 21
2020-07-27 15:00:00 38.1 12 Noroeste 29 Noroeste 0 -- -- 21
2020-07-27 14:00:00 37.1 10 Sudoeste 19 Oeste 0 -- -- 21
2020-07-27 13:00:00 35.2 5 Oeste 14 Oeste 0 -- -- 24
2020-07-27 12:00:00 32.1 5 Sudoeste 14 Sur 0 -- -- 28
2020-07-27 09:00:00 -- -- -- -- -- -- -- -- --
2020-07-27 08:00:00 -- -- -- -- -- -- -- -- --
2020-07-27 07:00:00 17.4 11 Sudeste 13 Este 0 -- -- 52
2020-07-27 06:00:00 18.1 5 Este 10 Este 0 -- -- 47
2020-07-27 05:00:00 18.3 7 Este 9 Este 0 -- -- 46
2020-07-27 04:00:00 19.4 4 Este 14 Este 0 -- -- 43
2020-07-27 03:00:00 20.4 12 Este 15 Este 0 -- -- 41
2020-07-27 02:00:00 22.9 14 Sudeste 16 Sudeste 0 -- -- 33
2020-07-27 01:00:00 24.6 14 Este 16 Este 0 -- -- 28
2020-07-27 00:00:00 26 9 Este 12 Este 0 -- -- 26
2020-07-26 23:00:00 27.7 4 Nordeste 6 Norte 0 -- -- 24
2020-07-26 22:00:00 29.2 6 Norte 11 Norte 0 -- -- 23
2020-07-26 21:00:00 32 8 Norte 15 Noroeste 0 -- -- 22
2020-07-26 20:00:00 33.7 11 Noroeste 18 Oeste 0 -- -- 21
2020-07-26 19:00:00 34.5 10 Oeste 21 Oeste 0 -- -- 21
2020-07-26 18:00:00 34.3 9 Oeste 24 Oeste 0 -- -- 22
2020-07-26 17:00:00 33.9 10 Oeste 30 Oeste 0 -- -- 22
2020-07-26 16:00:00 33.5 13 Oeste 26 Oeste 0 -- -- 23
2020-07-26 15:00:00 32.7 7 Oeste 17 Noroeste 0 -- -- 27
2020-07-26 14:00:00 31.1 6 Noroeste 15 Noroeste 0 -- -- 30
2020-07-26 13:00:00 29.3 7 Norte 18 Noroeste 0 -- -- 31
2020-07-26 12:00:00 26.6 6 Noroeste 12 Noroeste 0 -- -- 40
2020-07-26 11:00:00 24 5 Norte 14 Norte 0 -- -- 46
2020-07-26 10:00:00 21.5 5 Nordeste 9 Norte 0 -- -- 50
2020-07-26 09:00:00 18.4 0 Calma 10 Sur 0 -- -- 57
2020-07-26 08:00:00 16.1 0 Calma 8 Oeste 0 -- -- 61
2020-07-26 07:00:00 14.9 5 Sudoeste 10 Sudoeste 0 -- -- 63
2020-07-26 06:00:00 15.2 9 Sudoeste 12 Sudoeste 0 -- -- 60
2020-07-26 05:00:00 16.4 8 Sudoeste 11 Sudoeste 0 -- -- 53
2020-07-26 04:00:00 17.8 9 Sudoeste 12 Sudoeste 0 -- -- 47
2020-07-26 03:00:00 20.3 6 Oeste 10 Oeste 0 -- -- 41
2020-07-26 02:00:00 22 6 Oeste 13 Noroeste 0 -- -- 37
2020-07-26 01:00:00 23.5 10 Noroeste 19 Noroeste 0 -- -- 33
2020-07-26 00:00:00 25.4 9 Noroeste 17 Noroeste 0 -- -- 28
2020-07-25 23:00:00 27.1 12 Noroeste 23 Noroeste 0 -- -- 26
2020-07-25 22:00:00 29.2 9 Oeste 19 Oeste 0 -- -- 25
2020-07-25 21:00:00 32.1 11 Oeste 25 Noroeste 0 -- -- 23
2020-07-25 20:00:00 33.6 10 Noroeste 30 Oeste 0 -- -- 22
2020-07-25 19:00:00 34.2 11 Noroeste 28 Noroeste 0 -- -- 25
2020-07-25 18:00:00 34.1 12 Oeste 30 Noroeste 0 -- -- 23
2020-07-25 17:00:00 34 14 Oeste 35 Oeste 0 -- -- 24
2020-07-25 16:00:00 34.2 10 Sudoeste 26 Oeste 0 -- -- 23
2020-07-25 15:00:00 33.1 12 Oeste 25 Noroeste 0 -- -- 24
2020-07-25 14:00:00 32.5 8 Noroeste 18 Noroeste 0 -- -- 27
2020-07-25 13:00:00 30.8 5 Sur 10 Oeste 0 -- -- 28
2020-07-25 12:00:00 28.2 4 Noroeste 8 Este 0 -- -- 35
2020-07-25 11:00:00 24.8 3 Sudeste 10 Sudeste 0 -- -- 45
2020-07-25 10:00:00 21.6 6 Este 9 Este 0 -- -- 53
2020-07-25 09:00:00 19 6 Este 11 Nordeste 0 -- -- 61
2020-07-25 08:00:00 17.2 6 Nordeste 11 Nordeste 0 -- -- 64
2020-07-25 07:00:00 15.7 3 Norte 4 Nordeste 0 -- -- 67
2020-07-25 06:00:00 16 3 Norte 8 Norte 0 -- -- 64
2020-07-25 05:00:00 16.8 5 Norte 10 Norte 0 -- -- 61
2020-07-25 04:00:00 19.3 4 Nordeste 13 Nordeste 0 -- -- 57
2020-07-25 03:00:00 19.5 8 Nordeste 15 Este 0 -- -- 57
2020-07-25 02:00:00 20.1 10 Este 22 Este 0 -- -- 56
2020-07-25 01:00:00 21 16 Este 26 Este 0 -- -- 52
2020-07-25 00:00:00 23.1 14 Este 23 Este 0 -- -- 44
2020-07-24 23:00:00 25.4 12 Este 20 Este 0 -- -- 37
2020-07-24 22:00:00 27.7 11 Nordeste 18 Norte 0 -- -- 30
2020-07-24 21:00:00 30.5 11 Norte 22 Norte 0 -- -- 26
2020-07-24 20:00:00 31.6 14 Norte 26 Nordeste 0 -- -- 25
2020-07-24 19:00:00 32.7 8 Noroeste 26 Noroeste 0 -- -- 24
2020-07-24 18:00:00 32.3 10 Noroeste 22 Noroeste 0 -- -- 23
2020-07-24 17:00:00 32.2 8 Noroeste 28 Noroeste 0 -- -- 23
2020-07-24 16:00:00 31.9 9 Noroeste 20 Noroeste 0 -- -- 26
2020-07-24 15:00:00 30.8 9 Noroeste 19 Oeste 0 -- -- 27
2020-07-24 14:00:00 29.6 6 Noroeste 18 Norte 0 -- -- 31
2020-07-24 13:00:00 27.9 10 Norte 18 Norte 0 -- -- 37
2020-07-24 12:00:00 25.5 7 Norte 18 Norte 0 -- -- 44
2020-07-24 11:00:00 22.6 8 Nordeste 16 Este 0 -- -- 51
2020-07-24 10:00:00 20.3 6 Norte 15 Nordeste 0 -- -- 63
2020-07-24 09:00:00 18.6 10 Nordeste 15 Nordeste 0 -- -- 70
2020-07-24 08:00:00 16.7 4 Norte 11 Norte 0 -- -- 80
2020-07-24 07:00:00 16.5 8 Norte 15 Nordeste 0 -- -- 82
2020-07-24 06:00:00 17.2 7 Norte 10 Norte 0 -- -- 79
2020-07-24 05:00:00 17.7 7 Norte 18 Noroeste 0 -- -- 77
2020-07-24 04:00:00 19.3 11 Noroeste 18 Norte 0 -- -- 70
2020-07-24 03:00:00 21.3 6 Nordeste 13 Nordeste 0 -- -- 64
2020-07-24 02:00:00 21.9 6 Este 19 Norte 0 -- -- 63
2020-07-24 01:00:00 23.4 12 Norte 19 Nordeste 0 -- -- 60
2020-07-24 00:00:00 25.5 12 Norte 22 Noroeste 0 -- -- 49
2020-07-23 23:00:00 27.4 13 Noroeste 23 Noroeste 0 -- -- 34
2020-07-23 22:00:00 29.2 9 Oeste 19 Noroeste 0 -- -- 32
2020-07-23 21:00:00 32.1 9 Noroeste 26 Noroeste 0 -- -- 28
2020-07-23 20:00:00 33 15 Noroeste 28 Noroeste 0 -- -- 29
2020-07-23 19:00:00 33.5 12 Oeste 27 Oeste 0 -- -- 28
2020-07-23 18:00:00 33.5 10 Oeste 35 Noroeste 0 -- -- 26
2020-07-23 17:00:00 32.9 13 Oeste 67 Norte 0 -- -- 29
2020-07-23 16:00:00 32.8 12 Oeste 25 Noroeste 0 -- -- 29
2020-07-23 15:00:00 33.1 9 Noroeste 21 Norte 0 -- -- 30
2020-07-23 14:00:00 32.3 6 Norte 18 Noroeste 0 -- -- 35
2020-07-23 13:00:00 30.5 4 Nordeste 13 Este 0 -- -- 39
2020-07-23 12:00:00 27.6 5 Oeste 10 Norte 0 -- -- 43
2020-07-23 11:00:00 24.7 4 Sudoeste 9 Sur 0 -- -- 51
2020-07-23 10:00:00 22.3 5 Sur 9 Sudeste 0 -- -- 59
2020-07-23 09:00:00 20.1 3 Sur 6 Sur 0 -- -- 67
2020-07-23 08:00:00 18.2 0 Calma 4 Noroeste 0 -- -- 72
2020-07-23 07:00:00 18.1 2 Nordeste 11 Este 0 -- -- 70
2020-07-23 06:00:00 18.3 9 Sudeste 14 Sur 0 -- -- 70
2020-07-23 05:00:00 18.8 8 Este 13 Este 0 -- -- 68
2020-07-23 04:00:00 20.1 3 Nordeste 7 Noroeste 0 -- -- 65
2020-07-23 03:00:00 20.9 6 Sudeste 11 Sudeste 0 -- -- 61
2020-07-23 02:00:00 21.8 4 Sudeste 15 Este 0 -- -- 57
2020-07-23 01:00:00 23 9 Este 15 Norte 0 -- -- 52
2020-07-23 00:00:00 23.2 9 Sudeste 17 Sur 0 -- -- 55
2020-07-22 23:00:00 24.4 12 Sur 14 Sur 0 -- -- 51
2020-07-22 22:00:00 26.2 11 Sudeste 15 Sudeste 0 -- -- 47
2020-07-22 21:00:00 29.5 11 Sudeste 23 Sudeste 0 -- -- 37
2020-07-22 20:00:00 31.5 12 Sudeste 23 Sudeste 0 -- -- 33
2020-07-22 19:00:00 32.5 5 Noroeste 16 Noroeste 0 -- -- 28
2020-07-22 18:00:00 32.2 7 Sur 17 Sur 0 -- -- 31
2020-07-22 17:00:00 32 7 Noroeste 17 Noroeste 0 -- -- 31
2020-07-22 16:00:00 30.6 11 Sudoeste 23 Sudoeste 0 -- -- 33
2020-07-22 15:00:00 29.3 8 Oeste 22 Oeste 0 -- -- 39
2020-07-22 14:00:00 27.8 9 Oeste 20 Sudoeste 0 -- -- 44
2020-07-22 13:00:00 26.7 9 Sudoeste 21 Sudoeste 0 -- -- 50
2020-07-22 12:00:00 25.5 7 Sudoeste 17 Oeste 0 -- -- 54
2020-07-22 11:00:00 23.3 6 Noroeste 14 Noroeste 0 -- -- 63
2020-07-22 10:00:00 21.9 5 Noroeste 16 Norte 0 -- -- 69
2020-07-22 09:00:00 19.6 3 Sudoeste 10 Oeste 0 -- -- 82
2020-07-22 08:00:00 17.4 6 Oeste 14 Sudoeste 0 -- -- 87
2020-07-22 07:00:00 17.6 10 Sudeste 19 Noroeste 0 -- -- 87
2020-07-22 06:00:00 18.6 10 Este 24 Sudeste 0 -- -- 82
2020-07-22 05:00:00 18.6 12 Sudeste 28 Este 0 -- -- 81
2020-07-22 04:00:00 19.5 13 Nordeste 22 Este 0 -- -- 76
2020-07-22 03:00:00 19.1 13 Nordeste 27 Sur 1.4 -- -- 79
2020-07-22 02:00:00 20.9 5 Norte 26 Nordeste 3.6 -- -- 71
2020-07-22 01:00:00 22.6 15 Nordeste 21 Nordeste 0 -- -- 57
2020-07-22 00:00:00 22.7 10 Norte 28 Este 0 -- -- 60
2020-07-21 23:00:00 23.7 12 Nordeste 27 Nordeste 0 -- -- 52
2020-07-21 22:00:00 23.6 12 Este 19 Este 0 -- -- 54
2020-07-21 21:00:00 24.1 12 Este 19 Sudoeste 0 -- -- 54
2020-07-21 20:00:00 23.2 10 Oeste 50 Sudoeste 0 -- -- 57
2020-07-21 19:00:00 27 28 Sudoeste 42 Sudoeste 0 -- -- 44
2020-07-21 18:00:00 27.1 12 Oeste 25 Oeste 0 -- -- 52
2020-07-21 17:00:00 24.7 13 Oeste 37 Sudoeste 0.6 -- -- 57
2020-07-21 16:00:00 27.1 36 Sur 58 Sur 0.2 -- -- 43
2020-07-21 15:00:00 31.6 8 Oeste 15 Oeste 0 -- -- 28
2020-07-21 14:00:00 31.5 7 Oeste 14 Sudoeste 0 -- -- 32
2020-07-21 13:00:00 29.2 6 Norte 15 Noroeste 0 -- -- 39
2020-07-21 12:00:00 26.7 6 Noroeste 25 Noroeste 0 -- -- 47
2020-07-21 11:00:00 25.4 10 Norte 20 Noroeste 0 -- -- 49
2020-07-21 10:00:00 23.3 6 Norte 15 Oeste 0 -- -- 36
2020-07-21 09:00:00 19.4 6 Nordeste 12 Este 0 -- -- 41
2020-07-21 08:00:00 17.2 8 Este 13 Este 0 -- -- 44
2020-07-21 07:00:00 16.3 6 Este 13 Este 0 -- -- 46
2020-07-21 06:00:00 17.3 4 Nordeste 10 Este 0 -- -- 45
2020-07-21 05:00:00 17.9 8 Sudeste 14 Este 0 -- -- 43
2020-07-21 04:00:00 20 3 Este 11 Sur 0 -- -- 39
2020-07-21 03:00:00 20.8 7 Sudeste 11 Sudeste 0 -- -- 35
2020-07-21 02:00:00 22.4 0 Calma 9 Oeste 0 -- -- 38
2020-07-21 01:00:00 24.8 4 Noroeste 8 Noroeste 0 -- -- 34
2020-07-21 00:00:00 27 5 Norte 8 Noroeste 0 -- -- 31
2020-07-20 23:00:00 28.5 5 Norte 8 Noroeste 0 -- -- 28
2020-07-20 22:00:00 30.3 5 Noroeste 17 Oeste 0 -- -- 25
2020-07-20 21:00:00 33.2 6 Oeste 32 Oeste 0 -- -- 18
2020-07-20 20:00:00 34.5 10 Oeste 25 Oeste 0 -- -- 15
2020-07-20 19:00:00 35.2 15 Oeste 30 Sudoeste 0 -- -- 14
2020-07-20 18:00:00 35.2 13 Noroeste 24 Noroeste 0 -- -- 16
2020-07-20 17:00:00 35.1 12 Oeste 34 Sudoeste 0 -- -- 15
2020-07-20 16:00:00 34.2 9 Oeste 31 Oeste 0 -- -- 19
2020-07-20 15:00:00 33.5 8 Sudoeste 26 Oeste 0 -- -- 24
2020-07-20 14:00:00 31.9 10 Sudoeste 23 Noroeste 0 -- -- 29
2020-07-20 13:00:00 30.4 6 Noroeste 17 Sudoeste 0 -- -- 39
2020-07-20 12:00:00 27.9 8 Oeste 14 Oeste 0 -- -- 45
2020-07-20 11:00:00 25.1 7 Oeste 14 Oeste 0 -- -- 52
2020-07-20 10:00:00 22.2 8 Sudoeste 15 Oeste 0 -- -- 58
2020-07-20 09:00:00 20.2 2 Norte 7 Sudoeste 0 -- -- 61
2020-07-20 08:00:00 17.6 5 Sudoeste 14 Sudoeste 0 -- -- 54
2020-07-20 07:00:00 17.3 13 Sudoeste 16 Sudoeste 0 -- -- 55
2020-07-20 06:00:00 18.3 8 Sudoeste 16 Oeste 0 -- -- 51
2020-07-20 05:00:00 19.6 8 Sudoeste 18 Sudoeste 0 -- -- 47
2020-07-20 04:00:00 20.1 12 Sudoeste 16 Sudoeste 0 -- -- 43
2020-07-20 03:00:00 21 12 Sudoeste 18 Sudoeste 0 -- -- 37
2020-07-20 02:00:00 22.8 13 Sudoeste 28 Sudoeste 0 -- -- 33
2020-07-20 01:00:00 24.3 21 Sudoeste 28 Sudoeste 0 -- -- 29
2020-07-20 00:00:00 25.2 17 Sudoeste 23 Sudoeste 0 -- -- 28
2020-07-19 23:00:00 27.5 14 Sudoeste 26 Oeste 0 -- -- 26
2020-07-19 22:00:00 29.5 15 Sudoeste 23 Sudoeste 0 -- -- 24
2020-07-19 21:00:00 33.4 13 Oeste 32 Sudoeste 0 -- -- 18
2020-07-19 20:00:00 34.7 18 Sudoeste 31 Oeste 0 -- -- 18
2020-07-19 19:00:00 35.3 15 Sudoeste 33 Sudoeste 0 -- -- 18
2020-07-19 18:00:00 35.5 18 Oeste 37 Oeste 0 -- -- 19
2020-07-19 17:00:00 35.5 18 Oeste 35 Sudoeste 0 -- -- 20
2020-07-19 16:00:00 35.2 18 Oeste 40 Oeste 0 -- -- 22
2020-07-19 15:00:00 35.2 15 Sudoeste 38 Sudoeste 0 -- -- 24
2020-07-19 14:00:00 34.4 10 Oeste 33 Sudoeste 0 -- -- 25
2020-07-19 13:00:00 34.3 9 Sudoeste 26 Sudeste 0 -- -- 22
2020-07-19 12:00:00 31.8 10 Sudeste 18 Este 0 -- -- 24
2020-07-19 11:00:00 27.6 8 Sudeste 15 Este 0 -- -- 29
2020-07-19 10:00:00 22.8 5 Este 13 Este 0 -- -- 35
2020-07-19 09:00:00 18 10 Sudeste 14 Sudeste 0 -- -- 42
2020-07-19 08:00:00 14.5 10 Este 14 Este 0 -- -- 47
2020-07-19 07:00:00 14.2 6 Este 14 Este 0 -- -- 47
2020-07-19 06:00:00 14.7 11 Este 16 Este 0 -- -- 45
2020-07-19 05:00:00 15.2 10 Este 13 Este 0 -- -- 45
2020-07-19 04:00:00 16.4 9 Este 21 Sudeste 0 -- -- 43
2020-07-19 03:00:00 19.4 17 Sudeste 22 Sur 0 -- -- 34
2020-07-19 02:00:00 21.8 12 Sudeste 15 Este 0 -- -- 32
2020-07-19 01:00:00 24.2 10 Este 13 Este 0 -- -- 30
2020-07-19 00:00:00 24.1 5 Este 6 Este 0 -- -- 29
2020-07-18 23:00:00 27.1 3 Noroeste 10 Noroeste 0 -- -- 26
2020-07-18 22:00:00 29.1 6 Oeste 10 Oeste 0 -- -- 23
2020-07-18 21:00:00 32.4 4 Oeste 14 Oeste 0 -- -- 19
2020-07-18 20:00:00 32.8 8 Oeste 20 Oeste 0 -- -- 17
2020-07-18 19:00:00 33.2 7 Oeste 21 Noroeste 0 -- -- 17
2020-07-18 18:00:00 32.9 10 Noroeste 21 Oeste 0 -- -- 17
2020-07-18 17:00:00 32.7 6 Sudoeste 21 Noroeste 0 -- -- 16
2020-07-18 16:00:00 31.4 9 Noroeste 18 Oeste 0 -- -- 18
2020-07-18 15:00:00 29.8 7 Norte 15 Noroeste 0 -- -- 24
2020-07-18 14:00:00 27.4 8 Oeste 16 Oeste 0 -- -- 30
2020-07-18 13:00:00 25 6 Norte 12 Norte 0 -- -- 38
2020-07-18 12:00:00 22 3 Nordeste 12 Este 0 -- -- 47
2020-07-18 11:00:00 19.1 2 Sudoeste 9 Sudeste 0 -- -- 56
2020-07-18 10:00:00 16.7 5 Sudeste 9 Este 0 -- -- 65
2020-07-18 09:00:00 14.4 4 Nordeste 9 Norte 0 -- -- 75
2020-07-18 08:00:00 11.8 6 Norte 12 Norte 0 -- -- 83
2020-07-18 07:00:00 10.8 4 Norte 8 Norte 0 -- -- 84
2020-07-18 06:00:00 11.8 3 Noroeste 8 Norte 0 -- -- 80
2020-07-18 05:00:00 13.5 5 Norte 18 Nordeste 0 -- -- 74
2020-07-18 04:00:00 14.7 6 Nordeste 13 Nordeste 0 -- -- 69
2020-07-18 03:00:00 14.5 3 Este 13 Este 0 -- -- 67
2020-07-18 02:00:00 16.8 10 Este 17 Este 0 -- -- 61
2020-07-18 01:00:00 18.1 7 Este 21 Nordeste 0 -- -- 55
2020-07-18 00:00:00 20.6 15 Nordeste 22 Nordeste 0 -- -- 47
2020-07-17 23:00:00 22.6 8 Nordeste 19 Nordeste 0 -- -- 39
2020-07-17 22:00:00 25.1 12 Nordeste 24 Nordeste 0 -- -- 29
2020-07-17 21:00:00 28 17 Nordeste 31 Nordeste 0 -- -- 25
2020-07-17 20:00:00 29.5 19 Norte 33 Nordeste 0 -- -- 21
2020-07-17 19:00:00 30.6 19 Nordeste 33 Nordeste 0 -- -- 20
2020-07-17 18:00:00 30.9 17 Norte 33 Norte 0 -- -- 19
2020-07-17 17:00:00 31.4 18 Nordeste 38 Noroeste 0 -- -- 20
2020-07-17 16:00:00 30.8 17 Norte 30 Norte 0 -- -- 21
2020-07-17 15:00:00 30.3 15 Nordeste 30 Nordeste 0 -- -- 22
2020-07-17 14:00:00 29.3 17 Norte 24 Norte 0 -- -- 25
2020-07-17 13:00:00 27.4 9 Norte 21 Norte 0 -- -- 31
2020-07-17 12:00:00 24.6 6 Norte 17 Norte 0 -- -- 38
2020-07-17 11:00:00 21.1 9 Norte 14 Nordeste 0 -- -- 46
2020-07-17 10:00:00 18.1 8 Norte 16 Este 0 -- -- 51
2020-07-17 09:00:00 15.3 6 Este 9 Este 0 -- -- 56
2020-07-17 08:00:00 14.8 5 Nordeste 9 Nordeste 0 -- -- 57
2020-07-17 07:00:00 12.9 7 Norte 10 Norte 0 -- -- 67
2020-07-17 06:00:00 13.7 5 Norte 7 Noroeste 0 -- -- 60
2020-07-17 05:00:00 15.7 5 Norte 13 Nordeste 0 -- -- 51
2020-07-17 04:00:00 16.8 6 Norte 10 Norte 0 -- -- 45
2020-07-17 03:00:00 18 9 Norte 28 Nordeste 0 -- -- 42
2020-07-17 02:00:00 19.3 18 Nordeste 29 Nordeste 0 -- -- 39
2020-07-17 01:00:00 20.5 13 Nordeste 26 Nordeste 0 -- -- 39
2020-07-17 00:00:00 22 16 Nordeste 28 Nordeste 0 -- -- 41
2020-07-16 23:00:00 23.8 14 Nordeste 29 Nordeste 0 -- -- 41
2020-07-16 22:00:00 25.9 19 Nordeste 33 Nordeste 0 -- -- 40
2020-07-16 21:00:00 29.2 21 Norte 35 Norte 0 -- -- 30
2020-07-16 20:00:00 31.3 17 Norte 26 Norte 0 -- -- 26
2020-07-16 19:00:00 32.3 12 Norte 30 Noroeste 0 -- -- 24
2020-07-16 18:00:00 32.5 10 Norte 20 Nordeste 0 -- -- 22
2020-07-16 17:00:00 32.4 13 Nordeste 23 Nordeste 0 -- -- 20
2020-07-16 16:00:00 31.6 11 Norte 22 Noroeste 0 -- -- 21
2020-07-16 15:00:00 30.5 8 Noroeste 18 Noroeste 0 -- -- 23
2020-07-16 14:00:00 29.1 8 Norte 18 Norte 0 -- -- 28
2020-07-16 13:00:00 27.2 6 Norte 18 Norte 0 -- -- 32
2020-07-16 12:00:00 24.9 4 Norte 15 Nordeste 0 -- -- 38
2020-07-16 11:00:00 22.1 5 Nordeste 12 Nordeste 0 -- -- 45
2020-07-16 10:00:00 18.9 4 Este 12 Este 0 -- -- 51
2020-07-16 09:00:00 16.3 9 Este 15 Este 0 -- -- 55
2020-07-16 08:00:00 15.1 11 Nordeste 15 Nordeste 0 -- -- 56
2020-07-16 07:00:00 13.7 9 Norte 12 Norte 0 -- -- 58
2020-07-16 06:00:00 14.1 7 Norte 13 Norte 0 -- -- 57
2020-07-16 05:00:00 14.8 5 Norte 8 Norte 0 -- -- 55
2020-07-16 04:00:00 15.3 3 Nordeste 6 Nordeste 0 -- -- 51
2020-07-16 03:00:00 16.3 3 Este 9 Norte 0 -- -- 46
2020-07-16 02:00:00 18.4 9 Norte 15 Nordeste 0 -- -- 44
2020-07-16 01:00:00 19.1 10 Nordeste 20 Nordeste 0 -- -- 47
2020-07-16 00:00:00 20.5 16 Nordeste 24 Nordeste 0 -- -- 48
2020-07-15 23:00:00 22.1 15 Nordeste 25 Nordeste 0 -- -- 45
2020-07-15 22:00:00 24 20 Nordeste 35 Nordeste 0 -- -- 39
2020-07-15 21:00:00 26.6 19 Nordeste 36 Norte 0 -- -- 35
2020-07-15 20:00:00 28.3 22 Norte 33 Norte 0 -- -- 33
2020-07-15 19:00:00 29.2 17 Norte 32 Nordeste 0 -- -- 31
2020-07-15 18:00:00 29.7 15 Norte 30 Nordeste 0 -- -- 25
2020-07-15 17:00:00 29.6 16 Norte 29 Nordeste 0 -- -- 24
2020-07-15 16:00:00 29.2 18 Norte 30 Norte 0 -- -- 26
2020-07-15 15:00:00 28 10 Este 32 Norte 0 -- -- 30
2020-07-15 14:00:00 26.8 15 Nordeste 30 Nordeste 0 -- -- 30
2020-07-15 13:00:00 25 16 Nordeste 35 Nordeste 0 -- -- 37
2020-07-15 12:00:00 23.3 19 Nordeste 30 Norte 0 -- -- 40
2020-07-15 11:00:00 20.4 18 Nordeste 36 Nordeste 0 -- -- 43
2020-07-15 10:00:00 18.3 21 Nordeste 32 Nordeste 0 -- -- 47
2020-07-15 09:00:00 16.1 9 Nordeste 15 Norte 0 -- -- 44
2020-07-15 08:00:00 13.7 4 Este 19 Nordeste 0 -- -- 49
2020-07-15 07:00:00 13.2 13 Nordeste 23 Nordeste 0 -- -- 51
2020-07-15 06:00:00 13.6 17 Nordeste 26 Nordeste 0 -- -- 45
2020-07-15 05:00:00 14.1 14 Nordeste 20 Nordeste 0 -- -- 46
2020-07-15 04:00:00 14.4 14 Norte 19 Norte 0 -- -- 51
2020-07-15 03:00:00 15.4 13 Nordeste 22 Norte 0 -- -- 48
2020-07-15 02:00:00 16.3 15 Norte 24 Norte 0 -- -- 48
2020-07-15 01:00:00 17.4 18 Nordeste 29 Nordeste 0 -- -- 50
2020-07-15 00:00:00 19.2 19 Nordeste 33 Nordeste 0 -- -- 50
2020-07-14 23:00:00 21 19 Nordeste 34 Nordeste 0 -- -- 47
2020-07-14 22:00:00 23.3 20 Nordeste 40 Nordeste 0 -- -- 36
2020-07-14 21:00:00 26.5 25 Nordeste 39 Nordeste 0 -- -- 30
2020-07-14 20:00:00 28.8 21 Nordeste 34 Norte 0 -- -- 23
2020-07-14 19:00:00 29.3 19 Norte 35 Norte 0 -- -- 21
2020-07-14 18:00:00 30 16 Norte 30 Nordeste 0 -- -- 20
2020-07-14 17:00:00 30.2 11 Norte 29 Nordeste 0 -- -- 20
2020-07-14 16:00:00 29.9 15 Nordeste 27 Nordeste 0 -- -- 19
2020-07-14 15:00:00 28.9 8 Este 24 Nordeste 0 -- -- 22
2020-07-14 14:00:00 27.5 13 Nordeste 25 Nordeste 0 -- -- 24
2020-07-14 13:00:00 26.1 12 Nordeste 22 Nordeste 0 -- -- 26
2020-07-14 12:00:00 23.7 10 Nordeste 21 Nordeste 0 -- -- 32
2020-07-14 11:00:00 20.9 8 Nordeste 21 Nordeste 0 -- -- 38
2020-07-14 10:00:00 18.2 11 Nordeste 18 Nordeste 0 -- -- 46
2020-07-14 09:00:00 15.9 11 Este 20 Este 0 -- -- 46
2020-07-14 08:00:00 13 0 Calma 5 Sudoeste 0 -- -- 58
2020-07-14 07:00:00 11.6 4 Oeste 9 Norte 0 -- -- 60
2020-07-14 06:00:00 12.8 0 Calma 5 Noroeste 0 -- -- 52
2020-07-14 05:00:00 14.1 5 Norte 19 Nordeste 0 -- -- 49
2020-07-14 04:00:00 15 7 Nordeste 24 Nordeste 0 -- -- 50
2020-07-14 03:00:00 16.4 18 Nordeste 31 Nordeste 0 -- -- 49
2020-07-14 02:00:00 17.4 20 Nordeste 30 Nordeste 0 -- -- 48
2020-07-14 01:00:00 18.8 24 Nordeste 32 Nordeste 0 -- -- 47
2020-07-14 00:00:00 20.6 15 Nordeste 31 Nordeste 0 -- -- 46
2020-07-13 23:00:00 22.7 18 Nordeste 30 Nordeste 0 -- -- 42
2020-07-13 22:00:00 24.8 21 Nordeste 35 Norte 0 -- -- 40
2020-07-13 21:00:00 27.9 23 Nordeste 38 Nordeste 0 -- -- 35
2020-07-13 20:00:00 29.5 22 Norte 35 Norte 0 -- -- 33
2020-07-13 19:00:00 30.8 13 Norte 31 Norte 0 -- -- 31
2020-07-13 18:00:00 31.3 16 Norte 28 Norte 0 -- -- 30
2020-07-13 17:00:00 31.1 15 Norte 31 Norte 0 -- -- 31
2020-07-13 16:00:00 30.9 14 Norte 28 Nordeste 0 -- -- 32
2020-07-13 15:00:00 29.5 10 Norte 28 Nordeste 0 -- -- 36
2020-07-13 14:00:00 28.2 13 Norte 26 Norte 0 -- -- 40
2020-07-13 13:00:00 26.5 12 Norte 23 Nordeste 0 -- -- 44
2020-07-13 12:00:00 24.3 10 Norte 22 Norte 0 -- -- 49
2020-07-13 11:00:00 22.4 11 Nordeste 18 Nordeste 0 -- -- 57
2020-07-13 10:00:00 20 10 Nordeste 18 Norte 0 -- -- 64
2020-07-13 09:00:00 17.3 8 Norte 13 Nordeste 0 -- -- 76
2020-07-13 08:00:00 14.8 5 Norte 12 Norte 0 -- -- 85
2020-07-13 07:00:00 13.8 9 Norte 13 Norte 0 -- -- 87
2020-07-13 06:00:00 14.3 6 Norte 11 Nordeste 0 -- -- 85
2020-07-13 05:00:00 15.6 8 Nordeste 10 Este 0 -- -- 81
2020-07-13 04:00:00 15.8 7 Nordeste 11 Nordeste 0 -- -- 79
2020-07-13 03:00:00 16.7 5 Nordeste 13 Nordeste 0 -- -- 75
2020-07-13 02:00:00 18.1 9 Nordeste 12 Nordeste 0 -- -- 73
2020-07-13 01:00:00 18.6 9 Este 16 Este 0 -- -- 74
2020-07-13 00:00:00 18.9 8 Nordeste 20 Este 0 -- -- 73
2020-07-12 23:00:00 20 14 Este 22 Este 0 -- -- 68
2020-07-12 22:00:00 21.2 13 Este 27 Este 0 -- -- 62
2020-07-12 21:00:00 24.4 12 Este 17 Este 0 -- -- 47
2020-07-12 20:00:00 23.4 9 Norte 27 Este 0 -- -- 45
2020-07-12 19:00:00 24.1 22 Este 40 Este 0 -- -- 43
2020-07-12 18:00:00 29.1 20 Sudeste 35 Este 0 -- -- 33
2020-07-12 17:00:00 28 23 Sudeste 36 Este 0 -- -- 36
2020-07-12 16:00:00 30.8 19 Oeste 34 Oeste 0 -- -- 27
2020-07-12 15:00:00 30.1 10 Oeste 28 Sudoeste 0 -- -- 37
2020-07-12 14:00:00 29.9 18 Sudoeste 30 Sudoeste 0 -- -- 39
2020-07-12 13:00:00 28 3 Sudeste 12 Este 0 -- -- 42
2020-07-12 12:00:00 25.4 4 Este 13 Este 0 -- -- 50
2020-07-12 11:00:00 22.4 5 Sudeste 13 Norte 0 -- -- 59
2020-07-12 10:00:00 19 5 Noroeste 14 Norte 0 -- -- 72
2020-07-12 09:00:00 17.4 8 Norte 22 Norte 0 -- -- 76
2020-07-12 08:00:00 17.1 11 Nordeste 24 Nordeste 0 -- -- 76
2020-07-12 07:00:00 17 12 Este 20 Este 0 -- -- 77
2020-07-12 06:00:00 17.3 14 Este 26 Este 0 -- -- 77
2020-07-12 05:00:00 17.9 13 Nordeste 21 Nordeste 0 -- -- 76
2020-07-12 04:00:00 18.6 17 Norte 34 Sudoeste 0 -- -- 74
2020-07-12 03:00:00 20.8 13 Norte 32 Norte 0 -- -- 66
2020-07-12 02:00:00 21.5 19 Norte 35 Noroeste 0.2 -- -- 63
2020-07-12 01:00:00 23 20 Oeste 45 Oeste 0 -- -- 54
2020-07-12 00:00:00 24.6 11 Nordeste 20 Nordeste 0 -- -- 46
2020-07-11 23:00:00 25.3 11 Nordeste 22 Nordeste 0 -- -- 44
2020-07-11 22:00:00 27.2 17 Nordeste 27 Nordeste 0 -- -- 40
2020-07-11 21:00:00 29.1 16 Nordeste 26 Norte 0 -- -- 37
2020-07-11 20:00:00 30.6 18 Norte 32 Norte 0 -- -- 35
2020-07-11 19:00:00 32.3 15 Norte 24 Noroeste 0 -- -- 31
2020-07-11 18:00:00 33.2 4 Nordeste 19 Este 0 -- -- 28
2020-07-11 17:00:00 34.6 8 Sur 20 Sudeste 0 -- -- 27
2020-07-11 16:00:00 33.3 10 Sudoeste 21 Sudoeste 0 -- -- 28
2020-07-11 15:00:00 32.9 13 Sudeste 22 Sudeste 0 -- -- 27
2020-07-11 14:00:00 31.4 4 Nordeste 17 Este 0 -- -- 36
2020-07-11 13:00:00 29.2 4 Norte 15 Este 0 -- -- 42
2020-07-11 12:00:00 26.4 8 Norte 16 Norte 0 -- -- 48
2020-07-11 11:00:00 23.4 9 Nordeste 17 Nordeste 0 -- -- 56
2020-07-11 10:00:00 20.5 9 Nordeste 21 Nordeste 0 -- -- 63
2020-07-11 09:00:00 17.5 7 Nordeste 14 Nordeste 0 -- -- 72
2020-07-11 08:00:00 15.3 6 Norte 12 Norte 0 -- -- 79
2020-07-11 07:00:00 13.8 5 Norte 9 Norte 0 -- -- 84
2020-07-11 06:00:00 14.4 5 Norte 12 Nordeste 0 -- -- 81
2020-07-11 05:00:00 15.2 4 Norte 13 Norte 0 -- -- 78
2020-07-11 04:00:00 16.1 7 Norte 12 Norte 0 -- -- 76
2020-07-11 03:00:00 16.6 9 Norte 17 Norte 0 -- -- 73
2020-07-11 02:00:00 17.4 12 Norte 21 Nordeste 0 -- -- 71
2020-07-11 01:00:00 18.4 15 Norte 23 Norte 0 -- -- 66
2020-07-11 00:00:00 20.2 15 Norte 28 Norte 0 -- -- 61
2020-07-10 23:00:00 22.8 13 Norte 25 Nordeste 0 -- -- 50
2020-07-10 22:00:00 24.8 19 Nordeste 34 Nordeste 0 -- -- 47
2020-07-10 21:00:00 28.2 24 Nordeste 40 Nordeste 0 -- -- 41
2020-07-10 20:00:00 31.3 19 Nordeste 27 Norte 0 -- -- 31
2020-07-10 19:00:00 31.9 13 Nordeste 27 Nordeste 0 -- -- 27
2020-07-10 18:00:00 32.1 12 Nordeste 31 Nordeste 0 -- -- 27
2020-07-10 17:00:00 31.7 10 Este 33 Nordeste 0 -- -- 27
2020-07-10 16:00:00 31.1 9 Norte 30 Nordeste 0 -- -- 31
2020-07-10 15:00:00 30.2 18 Nordeste 29 Nordeste 0 -- -- 31
2020-07-10 14:00:00 28.6 12 Norte 30 Nordeste 0 -- -- 35
2020-07-10 13:00:00 27.1 15 Norte 39 Norte 0 -- -- 39
2020-07-10 12:00:00 25.2 9 Norte 19 Nordeste 0 -- -- 49
2020-07-10 11:00:00 22.8 7 Norte 15 Norte 0 -- -- 55
2020-07-10 10:00:00 20.5 7 Nordeste 16 Nordeste 0 -- -- 63
2020-07-10 09:00:00 18 10 Nordeste 15 Este 0 -- -- 70
2020-07-10 08:00:00 15.5 10 Este 17 Este 0 -- -- 78
2020-07-10 07:00:00 14.1 12 Este 15 Este 0 -- -- 82
2020-07-10 06:00:00 15.4 9 Este 15 Nordeste 0 -- -- 77
2020-07-10 05:00:00 16.1 8 Nordeste 11 Nordeste 0 -- -- 74
2020-07-10 04:00:00 16.7 6 Nordeste 13 Norte 0 -- -- 72
2020-07-10 03:00:00 17.2 7 Norte 12 Norte 0 -- -- 67
2020-07-10 02:00:00 18.2 10 Norte 15 Norte 0 -- -- 64
2020-07-10 01:00:00 19.9 10 Este 18 Nordeste 0 -- -- 56
2020-07-10 00:00:00 21.3 10 Nordeste 17 Nordeste 0 -- -- 51
2020-07-09 23:00:00 21.8 3 Nordeste 12 Nordeste 0 -- -- 53
2020-07-09 22:00:00 22.5 9 Nordeste 45 Este 0 -- -- 49
2020-07-09 21:00:00 24.3 14 Nordeste 30 Norte 0 -- -- 43
2020-07-09 20:00:00 24.6 23 Nordeste 53 Nordeste 0 -- -- 41
2020-07-09 19:00:00 28.4 31 Nordeste 49 Nordeste 0 -- -- 33
2020-07-09 18:00:00 34.2 7 Noroeste 21 Sudoeste 0 -- -- 21
2020-07-09 17:00:00 33.9 10 Sur 26 Sudoeste 0 -- -- 18
2020-07-09 16:00:00 33.1 8 Noroeste 21 Noroeste 0 -- -- 22
2020-07-09 15:00:00 32.2 8 Noroeste 19 Oeste 0 -- -- 25
2020-07-09 14:00:00 31.1 8 Oeste 21 Sudoeste 0 -- -- 24
2020-07-09 13:00:00 30.1 8 Noroeste 22 Sudoeste 0 -- -- 27
2020-07-09 12:00:00 28.8 12 Sudoeste 20 Sudoeste 0 -- -- 32
2020-07-09 11:00:00 26.1 6 Sur 13 Sur 0 -- -- 43
2020-07-09 10:00:00 23.1 2 Norte 10 Norte 0 -- -- 50
2020-07-09 09:00:00 19.7 4 Nordeste 13 Norte 0 -- -- 59
2020-07-09 08:00:00 17 4 Nordeste 14 Este 0 -- -- 69
2020-07-09 07:00:00 15.5 10 Este 17 Sudeste 0 -- -- 75
2020-07-09 06:00:00 15.8 16 Este 22 Este 0 -- -- 76
2020-07-09 05:00:00 16.3 18 Este 26 Sudeste 0 -- -- 73
2020-07-09 04:00:00 16.9 20 Este 28 Sudeste 0 -- -- 71
2020-07-09 03:00:00 17.4 22 Este 30 Este 0 -- -- 71
2020-07-09 02:00:00 18.4 26 Este 44 Sudeste 0.4 -- -- 71
2020-07-09 01:00:00 21.3 16 Sudeste 40 Este 0 -- -- 48
2020-07-09 00:00:00 22.9 21 Nordeste 39 Nordeste 0 -- -- 42
2020-07-08 23:00:00 24 12 Nordeste 27 Este 0 -- -- 40
2020-07-08 22:00:00 24.9 25 Este 58 Este 0 -- -- 37
2020-07-08 21:00:00 26.3 30 Este 60 Sudeste 0 -- -- 33
2020-07-08 20:00:00 30 21 Este 37 Este 0 -- -- 28
2020-07-08 19:00:00 30.9 12 Sur 54 Sur 0 -- -- 31
2020-07-08 18:00:00 33.8 26 Sur 41 Sudeste 0 -- -- 23
2020-07-08 17:00:00 35.2 24 Sur 44 Sudeste 0 -- -- 22
2020-07-08 16:00:00 34.9 26 Sur 43 Sudeste 0 -- -- 20
2020-07-08 15:00:00 35.6 29 Sur 42 Sudeste 0 -- -- 20
2020-07-08 14:00:00 36.2 29 Sudeste 44 Sudeste 0 -- -- 19
2020-07-08 13:00:00 32.5 8 Nordeste 19 Nordeste 0 -- -- 28
2020-07-08 12:00:00 26.9 9 Norte 14 Nordeste 0 -- -- 44
2020-07-08 11:00:00 24.7 4 Norte 10 Noroeste 0 -- -- 46
2020-07-08 10:00:00 21.9 5 Norte 11 Nordeste 0 -- -- 48
2020-07-08 09:00:00 20.9 6 Nordeste 17 Este 0 -- -- 45
2020-07-08 08:00:00 19.3 7 Este 31 Este 0 -- -- 50
2020-07-08 07:00:00 18.9 20 Este 44 Sudeste 0 -- -- 50
2020-07-08 06:00:00 19.2 24 Este 32 Este 0 -- -- 52
2020-07-08 05:00:00 19.2 7 Este 17 Este 0 -- -- 47
2020-07-08 04:00:00 20.2 9 Este 15 Este 0 -- -- 45
2020-07-08 03:00:00 22 9 Este 17 Este 0 -- -- 40
2020-07-08 02:00:00 23.1 14 Este 19 Este 0 -- -- 38
2020-07-08 01:00:00 24.7 14 Este 18 Sudeste 0 -- -- 34
2020-07-08 00:00:00 26.4 13 Este 17 Este 0 -- -- 31